Time;durP1;ratioP1;P1;durP2;ratioP2;P2;SDS_P1;SDS_P2;PMS_P1;PMS_P2;Temp;Humidity;BMP_temperature;BMP_pressure;BME280_temperature;BME280_humidity;BME280_pressure;Samples;Min_cycle;Max_cycle;Signal;HPM_P1;HPM_P2
2022/09/13 00:02:07;;;;;;;11.73;9.13;;;;;;;10.80;80.79;98490.43;1586440;89;25499;-56
2022/09/13 00:04:33;;;;;;;14.23;9.28;;;;;;;10.69;81.00;98480.88;1586554;90;25629;-56
2022/09/13 00:06:59;;;;;;;13.90;9.13;;;;;;;10.67;81.08;98490.79;1586486;90;25492;-56
2022/09/13 00:09:25;;;;;;;12.45;8.45;;;;;;;10.64;81.11;98480.47;1586461;89;25733;-56
2022/09/13 00:11:51;;;;;;;13.80;9.28;;;;;;;10.60;81.25;98481.69;1587930;89;27476;-56
2022/09/13 00:14:18;;;;;;;13.22;8.30;;;;;;;10.47;81.32;98473.81;1588102;90;25533;-56
2022/09/13 00:16:44;;;;;;;12.88;9.20;;;;;;;10.32;81.90;98475.58;1588525;90;25548;-56
2022/09/13 00:19:10;;;;;;;16.77;9.28;;;;;;;10.20;82.34;98478.37;1588545;90;26107;-56
2022/09/13 00:21:35;;;;;;;16.57;9.95;;;;;;;10.12;82.21;98477.75;1588616;90;25727;-57
2022/09/13 00:24:02;;;;;;;15.23;9.28;;;;;;;10.10;82.36;98480.02;1588664;90;27474;-56
2022/09/13 00:26:29;;;;;;;16.62;10.45;;;;;;;10.14;82.40;98470.05;1588632;90;25657;-56
2022/09/13 00:28:58;;;;;;;16.48;10.50;;;;;;;10.20;82.47;98473.44;1588516;90;25496;-56
2022/09/13 00:31:27;;;;;;;19.15;10.15;;;;;;;10.26;82.43;98472.18;1588482;90;26049;-56
2022/09/13 00:33:53;;;;;;;16.30;9.88;;;;;;;10.33;82.26;98471.73;1588373;90;25721;-56
2022/09/13 00:36:20;;;;;;;17.55;9.98;;;;;;;10.30;81.68;98473.16;1588543;90;27683;-56
2022/09/13 00:38:46;;;;;;;14.23;9.20;;;;;;;10.22;81.67;98476.10;1588172;90;25723;-56
2022/09/13 00:41:16;;;;;;;15.00;9.20;;;;;;;10.25;82.31;98475.47;1588332;90;25660;-57
2022/09/13 00:43:47;;;;;;;16.45;9.83;;;;;;;10.20;81.89;98475.63;1588431;90;26742;-56
2022/09/13 00:46:40;;;;;;;16.00;9.40;;;;;;;10.24;82.39;98475.78;1588488;90;25637;-56
2022/09/13 00:49:17;;;;;;;14.60;9.53;;;;;;;10.28;82.00;98469.94;1588607;90;27861;-56
2022/09/13 00:51:48;;;;;;;14.25;9.25;;;;;;;10.28;81.61;98472.69;1588510;90;25669;-58
2022/09/13 00:54:17;;;;;;;15.68;9.58;;;;;;;10.25;82.18;98465.89;1588536;90;25714;-58
2022/09/13 00:56:48;;;;;;;14.03;9.25;;;;;;;10.27;81.76;98461.46;1588434;90;26063;-58
2022/09/13 00:59:20;;;;;;;15.28;9.55;;;;;;;10.20;82.04;98460.56;1588602;90;25702;-58
2022/09/13 01:01:51;;;;;;;14.60;9.08;;;;;;;10.25;82.06;98464.52;1588493;90;28342;-58
2022/09/13 01:04:20;;;;;;;16.93;10.45;;;;;;;10.27;82.23;98465.57;1588482;90;26029;-58
2022/09/13 01:06:49;;;;;;;18.75;10.08;;;;;;;10.25;81.95;98472.73;1588545;90;25666;-58
2022/09/13 01:09:15;;;;;;;15.38;8.78;;;;;;;10.11;81.84;98467.94;1588642;90;25862;-59
2022/09/13 01:12:03;;;;;;;14.70;8.23;;;;;;;9.97;82.20;98474.31;1588471;89;25528;-58
2022/09/13 01:14:24;;;;;;;14.90;8.75;;;;;;;9.85;82.39;98468.61;1587440;90;26821;-58
2022/09/13 01:16:51;;;;;;;11.93;8.25;;;;;;;9.72;82.69;98461.53;1588363;90;26034;-58
2022/09/13 01:19:17;;;;;;;13.22;8.33;;;;;;;9.61;82.83;98458.80;1588566;90;25553;-58
2022/09/13 01:22:07;;;;;;;12.15;7.72;;;;;;;9.57;82.89;98456.45;1588606;90;26112;-58
2022/09/13 01:25:12;;;;;;;10.55;7.05;;;;;;;9.52;82.97;98460.11;1588516;90;25654;-58
2022/09/13 01:28:05;;;;;;;15.68;8.38;;;;;;;9.54;83.20;98455.97;1588307;90;27457;-58
2022/09/13 01:30:43;;;;;;;14.33;8.73;;;;;;;9.62;83.38;98452.22;1588381;90;25806;-59
2022/09/13 01:33:29;;;;;;;13.45;9.55;;;;;;;9.71;83.43;98454.45;1587227;90;25472;-58
2022/09/13 01:36:10;;;;;;;15.13;8.98;;;;;;;9.76;83.59;98453.52;1538328;93;25800;-58
2022/09/13 01:38:59;;;;;;;13.35;8.88;;;;;;;9.81;83.55;98449.27;1538477;93;25736;-57
2022/09/13 01:41:49;;;;;;;13.48;7.75;;;;;;;9.84;83.59;98446.48;1538195;92;27441;-57
2022/09/13 01:44:53;;;;;;;12.35;7.65;;;;;;;9.78;83.12;98446.60;1538102;93;27585;-58
2022/09/13 01:47:39;;;;;;;12.05;7.87;;;;;;;9.64;83.93;98439.84;1489731;95;25728;-57
2022/09/13 01:50:28;;;;;;;11.85;7.25;;;;;;;9.58;84.09;98444.41;1489925;96;26815;-58
2022/09/13 01:53:22;;;;;;;10.68;7.28;;;;;;;9.54;84.12;98438.73;1488853;96;25584;-57
2022/09/13 01:55:53;;;;;;;11.85;8.10;;;;;;;9.48;84.14;98438.06;1489498;96;27919;-58
2022/09/13 01:58:37;;;;;;;13.25;8.60;;;;;;;9.47;84.83;98433.70;1488935;96;25912;-58
2022/09/13 02:01:16;;;;;;;12.95;8.10;;;;;;;9.53;84.88;98432.45;1489708;96;25741;-58
2022/09/13 02:04:17;;;;;;;13.58;7.67;;;;;;;9.62;84.74;98428.97;1489677;94;25756;-58
2022/09/13 02:07:02;;;;;;;9.97;7.87;;;;;;;9.65;84.41;98418.19;1490139;96;25756;-58
2022/09/13 02:09:34;;;;;;;12.65;7.58;;;;;;;9.60;84.20;98416.97;1490068;96;27603;-58
2022/09/13 02:12:16;;;;;;;13.30;7.70;;;;;;;9.52;84.35;98410.88;1489205;94;25821;-57
2022/09/13 02:14:47;;;;;;;12.15;7.78;;;;;;;9.49;84.47;98415.60;1514659;94;25594;-57
2022/09/13 02:17:18;;;;;;;12.82;7.08;;;;;;;9.44;84.32;98422.59;1514314;94;26196;-57
2022/09/13 02:20:01;;;;;;;13.43;8.43;;;;;;;9.41;84.59;98415.24;1513430;94;25568;-57
2022/09/13 02:22:32;;;;;;;14.05;8.15;;;;;;;9.33;84.63;98417.38;1513468;94;27467;-58
2022/09/13 02:25:04;;;;;;;11.73;8.23;;;;;;;9.27;84.71;98415.89;1559223;90;25637;-57
2022/09/13 02:27:33;;;;;;;14.45;7.67;;;;;;;9.24;84.99;98413.77;1581967;90;25655;-58
2022/09/13 02:30:07;;;;;;;11.12;7.50;;;;;;;9.29;85.32;98403.52;1581936;90;26798;-57
2022/09/13 02:32:45;;;;;;;12.33;6.75;;;;;;;9.41;86.06;98402.94;1581975;90;25728;-57
2022/09/13 02:35:17;;;;;;;10.90;7.40;;;;;;;9.54;86.74;98402.63;1563173;90;28400;-57
2022/09/13 02:37:49;;;;;;;8.65;6.60;;;;;;;9.64;87.16;98401.53;1581808;90;25701;-57
2022/09/13 02:40:22;;;;;;;11.78;7.72;;;;;;;9.76;88.00;98403.68;1579458;90;25857;-57
2022/09/13 02:42:59;;;;;;;10.25;7.15;;;;;;;9.85;87.79;98405.66;1581639;90;26004;-57
2022/09/13 02:45:31;;;;;;;11.78;6.95;;;;;;;9.89;87.26;98399.80;1581979;90;25660;-57
2022/09/13 02:48:04;;;;;;;10.45;6.58;;;;;;;9.92;87.04;98390.95;1581838;90;27471;-57
2022/09/13 02:50:47;;;;;;;9.68;6.53;;;;;;;9.96;86.84;98391.92;1581901;90;25706;-57
2022/09/13 02:53:43;;;;;;;9.30;6.67;;;;;;;10.02;87.51;98391.25;1581714;90;25654;-57
2022/09/13 02:56:30;;;;;;;8.43;6.10;;;;;;;10.07;87.55;98390.30;1581792;90;26259;-58
2022/09/13 02:59:10;;;;;;;8.75;6.03;;;;;;;10.12;87.44;98387.40;1581842;90;25739;-57
2022/09/13 03:01:39;;;;;;;8.65;6.12;;;;;;;10.13;87.10;98380.81;1582095;90;27570;-57
2022/09/13 03:04:05;;;;;;;9.70;6.50;;;;;;;10.15;87.35;98379.92;1581764;90;25733;-57
2022/09/13 03:06:31;;;;;;;10.25;5.60;;;;;;;10.18;87.71;98380.66;1581918;90;25753;-57
2022/09/13 03:09:02;;;;;;;8.15;6.22;;;;;;;10.21;88.01;98375.91;1581769;90;26964;-57
2022/09/13 03:12:05;;;;;;;;;;;;;;;10.22;88.07;98382.99;1590053;88;25878;-57
2022/09/13 03:14:46;;;;;;;11.33;5.60;;;;;;;10.23;88.58;98376.41;1615375;88;27421;-57
2022/09/13 03:17:27;;;;;;;11.45;6.15;;;;;;;10.24;88.74;98374.45;1615017;88;25732;-57
2022/09/13 03:20:12;;;;;;;8.08;6.00;;;;;;;10.25;88.14;98373.36;1588275;90;25761;-57
2022/09/13 03:23:04;;;;;;;7.97;5.75;;;;;;;10.25;87.99;98376.09;1587662;90;26037;-57
2022/09/13 03:25:59;;;;;;;;;;;;;;;10.26;88.27;98378.52;1590482;90;25794;-58
2022/09/13 03:28:56;;;;;;;7.62;5.67;;;;;;;10.24;88.15;98368.43;1588039;90;28124;-57
2022/09/13 03:31:31;;;;;;;10.05;6.28;;;;;;;10.24;88.20;98363.50;1587956;90;25973;-57
2022/09/13 03:34:28;;;;;;;7.70;6.08;;;;;;;10.24;88.19;98364.88;1588121;90;25749;-57
2022/09/13 03:37:27;;;;;;;10.78;5.87;;;;;;;10.22;88.26;98367.14;1587211;90;26008;-57
2022/09/13 03:40:08;;;;;;;7.83;6.15;;;;;;;10.22;88.70;98364.41;1587938;90;25477;-57
2022/09/13 03:42:51;;;;;;;9.88;6.47;;;;;;;10.19;88.37;98358.98;1588260;90;27625;-57
2022/09/13 03:45:22;;;;;;;8.33;5.67;;;;;;;10.19;88.48;98360.94;1587690;90;25986;-57
2022/09/13 03:47:51;;;;;;;8.30;5.85;;;;;;;10.17;88.82;98359.30;1588110;90;25517;-57
2022/09/13 03:50:21;;;;;;;7.05;5.35;;;;;;;10.17;88.60;98362.63;1587954;90;26078;-57
2022/09/13 03:52:53;;;;;;;8.65;6.17;;;;;;;10.20;88.55;98354.32;1588430;90;25569;-57
2022/09/13 03:55:21;;;;;;;10.43;6.92;;;;;;;10.18;88.79;98353.27;1587733;90;28283;-57
2022/09/13 03:57:47;;;;;;;7.12;5.80;;;;;;;10.18;88.84;98342.32;1607352;88;25489;-57
2022/09/13 04:00:16;;;;;;;10.65;6.33;;;;;;;10.17;89.09;98348.34;1615351;88;25675;-57
2022/09/13 04:02:43;;;;;;;7.90;6.47;;;;;;;10.18;88.76;98346.42;1615160;88;25644;-58
2022/09/13 04:05:10;;;;;;;8.20;6.08;;;;;;;10.18;88.77;98346.42;1615366;88;25490;-57
2022/09/13 04:07:36;;;;;;;9.45;6.65;;;;;;;10.17;88.93;98342.88;1615300;88;27401;-57
2022/09/13 04:10:02;;;;;;;10.25;6.22;;;;;;;10.17;88.91;98351.08;1615550;88;25696;-57
2022/09/13 04:12:30;;;;;;;10.63;6.75;;;;;;;10.17;88.86;98346.19;1615228;88;25501;-57
2022/09/13 04:14:56;;;;;;;11.50;6.87;;;;;;;10.17;88.71;98340.72;1615316;88;27199;-57
2022/09/13 04:17:23;;;;;;;13.48;7.08;;;;;;;10.21;88.52;98347.70;1615364;88;25711;-57
2022/09/13 04:19:48;;;;;;;10.45;6.65;;;;;;;10.20;88.36;98345.55;1615332;88;27455;-57
2022/09/13 04:22:15;;;;;;;12.00;7.25;;;;;;;10.19;88.35;98349.98;1615347;88;25921;-57
2022/09/13 04:24:42;;;;;;;10.25;6.30;;;;;;;10.20;88.31;98341.45;1615066;88;25743;-58
2022/09/13 04:27:09;;;;;;;10.88;7.10;;;;;;;10.19;88.44;98342.55;1615303;88;25960;-57
2022/09/13 04:29:35;;;;;;;12.88;7.55;;;;;;;10.19;88.66;98341.77;1615421;88;25801;-58
2022/09/13 04:32:02;;;;;;;14.85;8.10;;;;;;;10.20;88.58;98341.45;1615522;88;27588;-57
2022/09/13 04:34:28;;;;;;;10.75;7.25;;;;;;;10.19;88.55;98341.18;1615425;88;25501;-57
2022/09/13 04:36:55;;;;;;;11.22;7.80;;;;;;;10.19;88.80;98341.18;1615250;88;25513;-57
2022/09/13 04:39:22;;;;;;;10.43;6.28;;;;;;;10.20;89.12;98344.73;1615471;88;26061;-57
2022/09/13 04:41:50;;;;;;;10.35;6.25;;;;;;;10.24;89.30;98351.18;1615189;88;25699;-57
2022/09/13 04:44:17;;;;;;;11.40;6.92;;;;;;;10.25;89.31;98347.34;1615003;88;28883;-57
2022/09/13 04:46:47;;;;;;;13.13;7.17;;;;;;;10.27;89.31;98342.33;1615444;88;25641;-57
2022/09/13 04:49:15;;;;;;;10.70;7.22;;;;;;;10.28;89.18;98346.12;1615286;88;25526;-57
2022/09/13 04:51:42;;;;;;;10.78;6.97;;;;;;;10.32;89.12;98348.22;1615308;88;26413;-57
2022/09/13 04:54:10;;;;;;;10.70;6.00;;;;;;;10.33;89.10;98337.52;1615417;88;25721;-57
2022/09/13 04:56:36;;;;;;;9.75;6.20;;;;;;;10.38;89.16;98338.72;1615289;88;27405;-57
2022/09/13 04:59:03;;;;;;;10.60;7.33;;;;;;;10.39;89.16;98347.20;1615248;88;25514;-57
2022/09/13 05:01:29;;;;;;;10.58;6.90;;;;;;;10.41;88.92;98344.38;1614978;88;25759;-57
2022/09/13 05:03:55;;;;;;;8.88;6.00;;;;;;;10.42;88.95;98343.80;1615284;88;26088;-57
2022/09/13 05:06:22;;;;;;;9.33;6.22;;;;;;;10.41;89.24;98343.01;1615532;88;25514;-57
2022/09/13 05:08:53;;;;;;;9.78;5.65;;;;;;;10.43;89.07;98335.84;1615287;88;27653;-57
2022/09/13 05:11:25;;;;;;;9.45;6.55;;;;;;;10.46;88.86;98339.34;1615095;88;25753;-57
2022/09/13 05:13:57;;;;;;;9.73;6.53;;;;;;;10.51;88.58;98343.27;1614953;88;25699;-57
2022/09/13 05:16:23;;;;;;;9.33;5.80;;;;;;;10.58;88.44;98348.84;1614584;88;25660;-58
2022/09/13 05:18:51;;;;;;;8.68;5.42;;;;;;;10.61;88.36;98339.98;1615299;88;25469;-57
2022/09/13 05:21:18;;;;;;;7.30;5.90;;;;;;;10.63;88.24;98338.55;1615274;88;28229;-56
2022/09/13 05:23:46;;;;;;;8.35;5.45;;;;;;;10.66;88.21;98344.76;1615015;88;27172;-57
2022/09/13 05:26:13;;;;;;;6.85;4.92;;;;;;;10.70;88.36;98344.09;1615232;88;25627;-57
2022/09/13 05:28:39;;;;;;;8.90;5.00;;;;;;;10.72;88.38;98341.28;1615418;88;26030;-57
2022/09/13 05:31:16;;;;;;;8.28;5.30;;;;;;;10.76;88.35;98334.58;1615457;88;25720;-57
2022/09/13 05:33:43;;;;;;;6.92;5.05;;;;;;;10.79;88.08;98339.41;1615637;88;27395;-57
2022/09/13 05:36:09;;;;;;;10.53;6.22;;;;;;;10.82;88.10;98333.28;1615223;88;25565;-57
2022/09/13 05:38:36;;;;;;;8.48;5.70;;;;;;;10.87;87.91;98339.17;1615565;88;25600;-56
2022/09/13 05:41:05;;;;;;;8.03;5.97;;;;;;;10.95;87.84;98346.59;1615157;88;26821;-58
2022/09/13 05:43:34;;;;;;;8.75;5.35;;;;;;;11.02;87.69;98346.09;1615382;88;25606;-58
2022/09/13 05:46:13;;;;;;;12.50;5.72;;;;;;;11.14;87.60;98348.19;1614750;88;27504;-57
2022/09/13 05:48:40;;;;;;;9.90;6.00;;;;;;;11.20;87.55;98348.81;1615380;88;25490;-57
2022/09/13 05:51:17;;;;;;;9.18;6.05;;;;;;;11.29;87.36;98350.39;1615253;88;25773;-57
2022/09/13 05:53:46;;;;;;;9.80;5.53;;;;;;;11.36;87.19;98344.98;1615090;88;26992;-57
2022/09/13 05:56:20;;;;;;;10.72;5.70;;;;;;;11.45;87.24;98351.84;1615292;88;25605;-57
2022/09/13 05:58:48;;;;;;;9.38;5.60;;;;;;;11.55;87.05;98346.77;1615515;88;28107;-57
2022/09/13 06:01:20;;;;;;;11.18;6.87;;;;;;;11.63;86.69;98345.14;1615178;88;25863;-57
2022/09/13 06:03:51;;;;;;;11.63;5.92;;;;;;;11.72;86.88;98343.75;1615636;88;25648;-57
2022/09/13 06:06:25;;;;;;;11.63;7.30;;;;;;;11.88;86.53;98354.16;1615271;88;26838;-56
2022/09/13 06:08:54;;;;;;;11.45;7.47;;;;;;;12.03;86.27;98354.16;1615269;88;25151;-57
2022/09/13 06:11:22;;;;;;;10.68;7.20;;;;;;;12.15;85.99;98358.41;1614998;88;27582;-57
2022/09/13 06:13:49;;;;;;;12.90;7.65;;;;;;;12.28;85.71;98353.02;1615007;88;25490;-57
2022/09/13 06:16:15;;;;;;;7.97;5.60;;;;;;;12.43;85.45;98351.62;1615427;88;25493;-57
2022/09/13 06:18:43;;;;;;;10.43;7.35;;;;;;;12.55;84.47;98352.27;1615259;88;26273;-57
2022/09/13 06:21:16;;;;;;;13.20;6.87;;;;;;;12.64;84.77;98349.47;1615036;88;25682;-56
2022/09/13 06:23:46;;;;;;;9.60;7.37;;;;;;;12.76;84.80;98353.66;1615224;88;25634;-57
2022/09/13 06:26:16;;;;;;;8.68;6.33;;;;;;;12.89;84.40;98355.89;1615359;88;29904;-57
2022/09/13 06:28:47;;;;;;;10.68;6.25;;;;;;;13.06;84.30;98359.62;1615240;88;25550;-57
2022/09/13 06:31:16;;;;;;;7.80;5.33;;;;;;;13.22;83.75;98353.48;1615313;88;26116;-57
2022/09/13 06:33:43;;;;;;;8.70;5.75;;;;;;;13.36;82.88;98347.09;1615037;88;25551;-57
2022/09/13 06:36:23;;;;;;;6.65;5.15;;;;;;;13.50;83.23;98344.06;1614889;88;27504;-57
2022/09/13 06:38:50;;;;;;;9.05;5.37;;;;;;;13.70;81.17;98347.67;1615011;88;25675;-57
2022/09/13 06:41:20;;;;;;;8.53;5.30;;;;;;;13.76;81.63;98344.92;1615172;88;25469;-57
2022/09/13 06:43:53;;;;;;;9.85;5.65;;;;;;;13.89;81.04;98335.52;1615432;88;32297;-57
2022/09/13 06:46:20;;;;;;;7.97;5.70;;;;;;;14.03;81.10;98332.98;1615785;88;25623;-57
2022/09/13 06:48:47;;;;;;;9.68;5.33;;;;;;;14.17;81.30;98329.28;1615103;88;27911;-56
2022/09/13 06:51:18;;;;;;;8.08;5.25;;;;;;;14.35;80.32;98335.94;1615075;88;25800;-57
2022/09/13 06:53:47;;;;;;;5.92;4.22;;;;;;;14.48;78.84;98330.41;1615465;88;25498;-57
2022/09/13 06:56:20;;;;;;;9.08;5.12;;;;;;;14.58;77.46;98329.09;1615266;88;26008;-57
2022/09/13 06:58:50;;;;;;;9.25;5.47;;;;;;;14.72;79.25;98332.86;1615213;88;25660;-57
2022/09/13 07:01:20;;;;;;;6.97;4.53;;;;;;;14.87;78.68;98326.63;1615209;88;28304;-57
2022/09/13 07:03:50;;;;;;;6.67;5.22;;;;;;;15.04;77.70;98333.00;1615300;88;33524;-57
2022/09/13 07:06:23;;;;;;;8.20;5.10;;;;;;;15.20;78.26;98329.48;1615346;88;25459;-57
2022/09/13 07:08:52;;;;;;;7.70;5.28;;;;;;;15.29;75.78;98335.05;1615262;88;26001;-57
2022/09/13 07:11:22;;;;;;;8.95;5.58;;;;;;;15.29;75.78;98335.05;1615007;88;25644;-57
2022/09/13 07:13:52;;;;;;;7.72;4.65;;;;;;;15.39;76.53;98331.55;1615104;88;26945;-56
2022/09/13 07:16:22;;;;;;;8.73;5.70;;;;;;;15.46;74.98;98327.61;1615336;88;25509;-57
2022/09/13 07:18:54;;;;;;;6.87;4.62;;;;;;;15.57;74.75;98333.38;1615146;88;25536;-57
2022/09/13 07:21:22;;;;;;;8.83;5.85;;;;;;;15.61;74.63;98321.06;1615193;88;26894;-57
2022/09/13 07:23:50;;;;;;;7.42;4.67;;;;;;;15.89;74.96;98332.60;1615310;88;25602;-57
2022/09/13 07:26:16;;;;;;;7.90;5.10;;;;;;;16.09;72.62;98332.70;1615072;88;27514;-57
2022/09/13 07:28:46;;;;;;;9.23;5.35;;;;;;;16.16;73.07;98333.67;1614986;88;25648;-57
2022/09/13 07:31:17;;;;;;;8.13;5.37;;;;;;;16.16;73.07;98333.67;1615476;88;25665;-57
2022/09/13 07:33:44;;;;;;;9.58;6.05;;;;;;;16.29;73.49;98339.87;1615411;88;26002;-58
2022/09/13 07:36:12;;;;;;;9.78;5.75;;;;;;;16.40;73.15;98340.69;1615341;88;25474;-57
2022/09/13 07:38:44;;;;;;;7.47;5.12;;;;;;;16.51;71.51;98339.55;1615397;88;27521;-57
2022/09/13 07:41:15;;;;;;;8.38;5.03;;;;;;;16.64;73.19;98341.61;1615233;88;25791;-57
2022/09/13 07:43:42;;;;;;;9.33;5.03;;;;;;;16.79;71.33;98325.53;1615442;88;25600;-58
2022/09/13 07:46:18;;;;;;;9.25;5.75;;;;;;;16.88;72.15;98331.42;1615125;88;26222;-57
2022/09/13 07:48:46;;;;;;;7.05;4.58;;;;;;;17.05;71.94;98326.02;1615366;88;25536;-58
2022/09/13 07:51:16;;;;;;;8.95;4.58;;;;;;;17.06;69.30;98332.58;1615059;88;29584;-58
2022/09/13 07:53:45;;;;;;;7.97;5.35;;;;;;;17.10;68.49;98327.72;1615570;88;25679;-58
2022/09/13 07:56:17;;;;;;;8.98;4.97;;;;;;;17.22;69.34;98325.38;1615400;88;25491;-58
2022/09/13 07:58:48;;;;;;;8.10;4.85;;;;;;;17.34;67.53;98331.32;1615065;88;25987;-58
2022/09/13 08:01:22;;;;;;;6.97;4.70;;;;;;;17.47;67.72;98327.20;1615446;88;25450;-59
2022/09/13 08:03:59;;;;;;;7.12;4.28;;;;;;;17.60;67.07;98319.52;1615333;88;27091;-57
2022/09/13 08:06:28;;;;;;;9.25;5.10;;;;;;;17.77;66.95;98322.96;1614571;88;25730;-58
2022/09/13 08:09:02;;;;;;;5.42;4.00;;;;;;;18.01;68.62;98320.95;1615433;88;25535;-57
2022/09/13 08:11:38;;;;;;;6.53;4.40;;;;;;;18.39;66.73;98321.16;1615358;88;26158;-58
2022/09/13 08:14:08;;;;;;;4.42;3.47;;;;;;;18.62;66.35;98324.42;1595377;88;25513;-58
2022/09/13 08:16:35;;;;;;;8.48;4.10;;;;;;;18.87;64.67;98315.02;1584454;90;27630;-58
2022/09/13 08:19:03;;;;;;;5.60;3.92;;;;;;;19.00;65.04;98306.44;1584018;90;25512;-57
2022/09/13 08:21:36;;;;;;;8.15;4.05;;;;;;;19.27;64.32;98309.12;1584198;90;25719;-57
2022/09/13 08:24:05;;;;;;;6.92;3.95;;;;;;;19.56;62.81;98305.22;1584211;90;26668;-57
2022/09/13 08:26:34;;;;;;;5.83;3.33;;;;;;;19.63;62.77;98308.06;1583861;90;25790;-58
2022/09/13 08:29:04;;;;;;;5.58;3.40;;;;;;;19.81;62.45;98302.64;1584063;90;27364;-57
2022/09/13 08:31:31;;;;;;;4.33;3.20;;;;;;;20.09;60.96;98301.09;1584146;90;25958;-58
2022/09/13 08:33:57;;;;;;;3.45;3.10;;;;;;;20.20;59.35;98301.95;1584178;90;25742;-58
2022/09/13 08:36:27;;;;;;;5.37;3.77;;;;;;;20.35;60.86;98300.04;1584544;90;26600;-57
2022/09/13 08:38:57;;;;;;;3.62;3.27;;;;;;;20.73;59.84;98299.04;1584244;90;25507;-58
2022/09/13 08:41:51;;;;;;;4.90;3.20;;;;;;;20.84;57.66;98299.86;1584001;90;27423;-58
2022/09/13 08:44:35;;;;;;;3.50;3.05;;;;;;;20.89;55.77;98288.94;1583766;90;25830;-57
2022/09/13 08:47:44;;;;;;;4.20;3.25;;;;;;;20.79;56.86;98292.71;1583347;90;25457;-58
2022/09/13 08:50:32;;;;;;;4.25;3.62;;;;;;;20.79;56.80;98289.92;1513209;94;26325;-58
2022/09/13 08:53:23;;;;;;;4.62;3.42;;;;;;;21.05;58.02;98288.05;1513399;94;25752;-58
2022/09/13 08:56:10;;;;;;;4.28;3.30;;;;;;;21.26;56.07;98287.88;1537110;93;27608;-58
2022/09/13 08:58:45;;;;;;;4.83;3.55;;;;;;;21.66;56.17;98285.71;1537242;93;25679;-58
2022/09/13 09:01:39;;;;;;;5.78;3.42;;;;;;;21.92;54.29;98283.14;1537067;93;25904;-57
2022/09/13 09:04:27;;;;;;;5.60;3.22;;;;;;;22.09;55.48;98282.12;1536932;93;26572;-58
2022/09/13 09:07:11;;;;;;;4.22;3.12;;;;;;;22.15;52.41;98280.52;1537116;93;25751;-58
2022/09/13 09:09:43;;;;;;;5.80;2.92;;;;;;;22.27;52.11;98275.09;1536464;93;27503;-58
2022/09/13 09:12:33;;;;;;;3.65;3.17;;;;;;;22.18;52.89;98280.30;1537161;93;27057;-58
2022/09/13 09:15:27;;;;;;;4.15;2.72;;;;;;;22.38;53.41;98273.67;1560550;91;25639;-57
2022/09/13 09:18:10;;;;;;;4.25;3.08;;;;;;;22.78;52.51;98276.34;1564423;91;26008;-58
2022/09/13 09:20:52;;;;;;;4.60;3.17;;;;;;;22.85;50.57;98264.33;1564545;91;25538;-58
2022/09/13 09:23:25;;;;;;;4.83;3.10;;;;;;;23.14;52.63;98271.14;1564004;91;27676;-58
2022/09/13 09:26:18;;;;;;;5.55;3.45;;;;;;;23.67;53.34;98267.59;1574223;90;25896;-58
2022/09/13 09:29:00;;;;;;;4.70;3.27;;;;;;;24.15;50.37;98274.36;1614962;88;25534;-58
2022/09/13 09:31:41;;;;;;;5.08;2.80;;;;;;;24.64;49.83;98272.63;1615333;88;25987;-58
2022/09/13 09:34:41;;;;;;;4.72;3.35;;;;;;;25.15;47.37;98262.95;1615052;88;25680;-58
2022/09/13 09:37:23;;;;;;;5.50;2.92;;;;;;;25.16;49.73;98260.32;1614896;88;26969;-57
2022/09/13 09:39:53;;;;;;;4.75;3.60;;;;;;;25.41;43.64;98254.14;1614876;88;25938;-57
2022/09/13 09:42:24;;;;;;;4.25;3.30;;;;;;;25.25;47.43;98254.20;1615267;88;25693;-59
2022/09/13 09:45:08;;;;;;;3.60;2.67;;;;;;;25.41;46.94;98255.54;1614803;88;26686;-57
2022/09/13 09:47:46;;;;;;;5.33;2.67;;;;;;;25.68;46.25;98249.14;1613073;88;25513;-58
2022/09/13 09:50:26;;;;;;;5.25;2.33;;;;;;;26.09;46.00;98257.63;1615352;88;28347;-58
2022/09/13 09:53:31;;;;;;;3.70;2.30;;;;;;;26.45;45.03;98252.73;1615063;88;25486;-58
2022/09/13 09:56:14;;;;;;;2.92;2.20;;;;;;;26.53;44.34;98243.55;1615012;88;25542;-58
2022/09/13 09:58:43;;;;;;;3.98;2.27;;;;;;;26.67;44.18;98241.05;1615448;88;26068;-58
2022/09/13 10:01:26;;;;;;;3.17;2.10;;;;;;;26.71;43.71;98243.17;1615178;88;25665;-59
2022/09/13 10:04:07;;;;;;;2.62;2.10;;;;;;;26.84;44.38;98241.90;1615259;88;27550;-58
2022/09/13 10:06:37;;;;;;;3.35;1.98;;;;;;;27.15;43.20;98236.62;1615003;88;25629;-60
2022/09/13 10:09:19;;;;;;;2.55;2.02;;;;;;;27.58;42.54;98234.78;1615378;88;25688;-59
2022/09/13 10:11:58;;;;;;;2.67;1.90;;;;;;;27.55;41.50;98235.67;1615432;88;26644;-60
2022/09/13 10:14:40;;;;;;;4.25;2.30;;;;;;;28.00;38.54;98231.94;1602607;88;25653;-58
2022/09/13 10:17:29;;;;;;;3.85;2.10;;;;;;;28.40;40.37;98230.84;1614768;88;27619;-58
2022/09/13 10:20:03;;;;;;;2.45;2.00;;;;;;;28.60;39.30;98217.98;1614807;88;25482;-58
2022/09/13 10:22:32;;;;;;;3.08;2.00;;;;;;;28.84;39.23;98225.34;1614618;88;25663;-58
2022/09/13 10:25:24;;;;;;;2.83;1.90;;;;;;;28.87;39.62;98213.94;1614830;88;26231;-58
2022/09/13 10:27:54;;;;;;;3.05;2.10;;;;;;;29.33;39.61;98214.36;1615075;88;25459;-59
2022/09/13 10:30:54;;;;;;;2.35;2.15;;;;;;;29.56;35.52;98213.84;1614557;88;27413;-57
2022/09/13 10:33:33;;;;;;;3.83;2.22;;;;;;;29.43;37.29;98212.41;1610124;88;25635;-57
2022/09/13 10:36:08;;;;;;;3.47;2.30;;;;;;;29.13;37.73;98218.19;1614928;88;25691;-56
2022/09/13 10:38:39;;;;;;;3.27;2.33;;;;;;;29.13;38.08;98212.55;1614664;88;26159;-56
2022/09/13 10:41:11;;;;;;;2.60;1.95;;;;;;;29.34;38.11;98211.70;1614628;88;25481;-57
2022/09/13 10:43:38;;;;;;;2.65;2.08;;;;;;;29.60;35.27;98209.47;1605740;88;27483;-57
2022/09/13 10:46:08;;;;;;;2.17;1.98;;;;;;;29.05;34.91;98202.76;1614421;88;25695;-57
2022/09/13 10:48:46;;;;;;;2.40;1.80;;;;;;;28.70;37.16;98200.59;1614870;88;25473;-56
2022/09/13 10:51:35;;;;;;;2.77;1.77;;;;;;;29.13;37.54;98199.86;1614936;88;26836;-56
2022/09/13 10:54:22;;;;;;;2.05;1.90;;;;;;;29.39;37.48;98197.00;1615036;88;25676;-57
2022/09/13 10:56:50;;;;;;;2.70;2.08;;;;;;;29.59;36.68;98197.41;1614707;88;27376;-57
2022/09/13 10:59:29;;;;;;;2.30;1.85;;;;;;;29.71;34.88;98191.55;1614474;88;25690;-56
2022/09/13 11:02:22;;;;;;;2.37;1.98;;;;;;;29.86;36.72;98192.44;1614593;88;25654;-57
2022/09/13 11:05:18;;;;;;;2.70;1.95;;;;;;;30.07;35.90;98191.52;1614381;88;28164;-57
2022/09/13 11:08:11;;;;;;;2.45;1.80;;;;;;;30.11;36.02;98188.73;1614858;88;25525;-56
2022/09/13 11:10:46;;;;;;;2.67;1.82;;;;;;;30.54;35.91;98189.80;1614622;88;27449;-57
2022/09/13 11:13:23;;;;;;;2.27;1.75;;;;;;;30.67;33.52;98195.34;1614532;88;26046;-56
2022/09/13 11:16:14;;;;;;;1.92;1.70;;;;;;;30.40;34.10;98191.89;1609905;88;26517;-57
2022/09/13 11:18:54;;;;;;;1.90;1.80;;;;;;;30.77;34.37;98182.84;1609106;88;27249;-56
2022/09/13 11:21:29;;;;;;;2.98;1.70;;;;;;;31.31;34.58;98177.67;1618518;88;25670;-57
2022/09/13 11:24:22;;;;;;;1.70;1.60;;;;;;;31.59;32.68;98172.70;1618455;88;27396;-57
2022/09/13 11:27:15;;;;;;;1.70;1.60;;;;;;;31.59;31.89;98173.50;1618331;88;25463;-58
2022/09/13 11:30:14;;;;;;;2.30;1.77;;;;;;;31.56;32.32;98161.70;1618422;88;25709;-57
2022/09/13 11:33:17;;;;;;;2.15;1.75;;;;;;;31.47;32.94;98158.23;1618656;88;26541;-57
2022/09/13 11:36:25;;;;;;;4.47;1.62;;;;;;;31.61;33.15;98152.59;1614414;88;25479;-56
2022/09/13 11:39:18;;;;;;;2.15;1.80;;;;;;;31.67;33.76;98140.00;1626192;87;28416;-57
2022/09/13 11:42:25;;;;;;;2.92;1.90;;;;;;;32.01;32.66;98131.01;1616393;88;25724;-57
2022/09/13 11:45:06;;;;;;;2.37;2.17;;;;;;;31.91;32.45;98131.64;1615222;88;25499;-57
2022/09/13 11:47:58;;;;;;;2.12;1.57;;;;;;;31.62;32.30;98123.63;1578986;90;26218;-58
2022/09/13 11:51:11;;;;;;;2.15;1.55;;;;;;;31.75;31.94;98127.08;1601850;89;25594;-58
2022/09/13 11:53:58;;;;;;;1.87;1.52;;;;;;;31.53;32.22;98123.80;1603862;89;28895;-58
2022/09/13 11:56:36;;;;;;;2.75;1.85;;;;;;;30.87;31.11;98113.59;1603567;89;25764;-59
2022/09/13 11:59:38;;;;;;;2.20;1.82;;;;;;;30.07;32.45;98116.66;1603150;89;25703;-58
2022/09/13 12:02:21;;;;;;;4.75;2.15;;;;;;;29.52;34.47;98112.31;1604163;89;26745;-57
2022/09/13 12:04:53;;;;;;;2.35;2.02;;;;;;;29.17;34.51;98104.64;1527357;93;25990;-58
2022/09/13 12:07:53;;;;;;;4.33;2.22;;;;;;;28.82;37.01;98093.28;1528717;93;28073;-58
2022/09/13 12:10:24;;;;;;;2.77;1.70;;;;;;;28.65;36.64;98096.23;1527445;93;26182;-59
2022/09/13 12:12:52;;;;;;;1.87;1.77;;;;;;;28.47;35.51;98084.12;1528549;93;25713;-59